createdAt,value
2016-09-02T00:00:47.914Z,0
2016-09-02T00:01:48.292Z,0
2016-09-02T00:02:47.888Z,0
2016-09-02T00:03:48.025Z,0
2016-09-02T00:04:47.874Z,0
2016-09-02T00:05:48.238Z,0
2016-09-02T00:06:47.897Z,0
2016-09-02T00:07:47.906Z,0
2016-09-02T00:08:47.922Z,0
2016-09-02T00:09:48.132Z,0
2016-09-02T00:10:47.898Z,0
2016-09-02T00:11:47.894Z,0
2016-09-02T00:12:49.481Z,0
2016-09-02T00:13:47.879Z,0
2016-09-02T00:14:47.873Z,0
2016-09-02T00:15:47.932Z,0
2016-09-02T00:16:47.882Z,0
2016-09-02T00:17:47.848Z,0
2016-09-02T00:18:47.869Z,0
2016-09-02T00:19:47.920Z,0
2016-09-02T00:20:47.715Z,0
2016-09-02T00:21:47.710Z,0
2016-09-02T00:22:48.039Z,0
2016-09-02T00:23:47.700Z,0
2016-09-02T00:24:47.709Z,0
2016-09-02T00:25:48.327Z,0
2016-09-02T00:26:47.712Z,0
2016-09-02T00:27:47.708Z,0
2016-09-02T00:28:47.705Z,0
2016-09-02T00:29:47.697Z,0
2016-09-02T00:30:47.692Z,0
2016-09-02T00:31:47.687Z,0
2016-09-02T00:32:47.563Z,0
2016-09-02T00:33:47.640Z,0
2016-09-02T00:34:47.590Z,0
2016-09-02T00:35:47.566Z,0
2016-09-02T00:36:47.727Z,0
2016-09-02T00:37:47.547Z,0
2016-09-02T00:38:47.546Z,0
2016-09-02T00:39:47.544Z,0
2016-09-02T00:40:47.524Z,0
2016-09-02T00:41:47.591Z,0
2016-09-02T00:42:47.520Z,0
2016-09-02T00:43:48.252Z,0
2016-09-02T00:44:47.490Z,0
2016-09-02T00:45:47.511Z,0
2016-09-02T00:46:47.495Z,0
2016-09-02T00:47:47.493Z,0
2016-09-02T00:48:47.498Z,0
2016-09-02T00:49:48.236Z,0
2016-09-02T00:50:48.192Z,0
2016-09-02T00:51:47.482Z,0
2016-09-02T00:52:48.148Z,0
2016-09-02T00:53:47.437Z,0
2016-09-02T00:54:47.438Z,0
2016-09-02T00:55:47.446Z,0
2016-09-02T00:56:47.411Z,0
2016-09-02T00:57:47.423Z,0
2016-09-02T00:58:47.422Z,0
2016-09-02T00:59:47.405Z,0
2016-09-02T01:00:47.393Z,0
2016-09-02T01:01:47.390Z,0
2016-09-02T01:02:47.389Z,0
2016-09-02T01:03:48.116Z,0
2016-09-02T01:04:47.376Z,0
2016-09-02T01:05:47.368Z,0
2016-09-02T01:06:47.375Z,0
2016-09-02T01:07:47.348Z,0
2016-09-02T01:08:47.348Z,0
2016-09-02T01:09:47.346Z,0
2016-09-02T01:10:47.353Z,0
2016-09-02T01:11:47.337Z,0
2016-09-02T01:12:47.321Z,0
2016-09-02T01:13:47.322Z,0
2016-09-02T01:14:47.336Z,0
2016-09-02T01:15:47.305Z,0
2016-09-02T01:16:47.307Z,0
2016-09-02T01:17:47.292Z,0
2016-09-02T01:18:47.297Z,0
2016-09-02T01:19:47.277Z,0
2016-09-02T01:20:47.280Z,0
2016-09-02T01:21:47.276Z,0
2016-09-02T01:22:48.005Z,0
2016-09-02T01:23:47.255Z,0
2016-09-02T01:24:47.255Z,0
2016-09-02T01:25:47.265Z,0
2016-09-02T01:26:47.242Z,0
2016-09-02T01:27:47.223Z,0
2016-09-02T01:28:47.951Z,0
2016-09-02T01:29:47.236Z,0
2016-09-02T01:30:47.208Z,0
2016-09-02T01:31:47.215Z,0
2016-09-02T01:32:47.212Z,0
2016-09-02T01:33:47.202Z,0
2016-09-02T01:34:47.201Z,0
2016-09-02T01:35:47.973Z,0
2016-09-02T01:36:47.185Z,0
2016-09-02T01:37:47.174Z,0
2016-09-02T01:38:47.864Z,0
2016-09-02T01:39:47.153Z,0
2016-09-02T01:40:47.152Z,0
2016-09-02T01:41:47.196Z,0
2016-09-02T01:42:47.158Z,0
2016-09-02T01:43:47.135Z,0
2016-09-02T01:44:47.139Z,0
2016-09-02T01:45:47.111Z,0
2016-09-02T01:46:47.128Z,0
2016-09-02T01:47:47.111Z,0
2016-09-02T01:48:47.831Z,0
2016-09-02T01:49:47.114Z,0
2016-09-02T01:50:47.093Z,0
2016-09-02T01:51:47.104Z,0
2016-09-02T01:52:47.077Z,0
2016-09-02T01:53:47.081Z,0
2016-09-02T01:54:47.062Z,0
2016-09-02T01:55:47.061Z,0
2016-09-02T01:56:47.054Z,0
2016-09-02T01:57:47.056Z,0
2016-09-02T01:58:47.756Z,0
2016-09-02T01:59:47.043Z,0
2016-09-02T02:00:47.907Z,0
2016-09-02T02:01:48.115Z,0
2016-09-02T02:02:47.022Z,0
2016-09-02T02:03:47.017Z,0
2016-09-02T02:04:46.998Z,0
2016-09-02T02:05:47.028Z,0
2016-09-02T02:06:47.004Z,0
2016-09-02T02:07:47.000Z,0
2016-09-02T02:08:47.012Z,0
2016-09-02T02:09:46.966Z,0
2016-09-02T02:10:46.967Z,0
2016-09-02T02:11:46.966Z,0
2016-09-02T02:12:46.964Z,0
2016-09-02T02:13:46.947Z,0
2016-09-02T02:14:46.953Z,0
2016-09-02T02:15:46.979Z,0
2016-09-02T02:16:46.969Z,0
2016-09-02T02:17:46.928Z,0
2016-09-02T02:18:47.699Z,0
2016-09-02T02:19:46.915Z,0
2016-09-02T02:21:46.907Z,0
2016-09-02T02:22:46.878Z,0
2016-09-02T02:23:46.891Z,0
2016-09-02T02:24:46.879Z,0
2016-09-02T02:25:46.862Z,0
2016-09-02T02:26:46.866Z,0
2016-09-02T02:27:46.848Z,0
2016-09-02T02:28:47.598Z,0
2016-09-02T02:29:47.555Z,0
2016-09-02T02:30:46.831Z,0
2016-09-02T02:31:46.819Z,0
2016-09-02T02:32:46.809Z,0
2016-09-02T02:33:46.821Z,0
2016-09-02T02:34:46.810Z,0
2016-09-02T02:35:46.898Z,0
2016-09-02T02:36:46.817Z,0
2016-09-02T02:37:46.790Z,0
2016-09-02T02:38:46.776Z,0
2016-09-02T02:39:46.783Z,0
2016-09-02T02:40:46.782Z,0
2016-09-02T02:41:46.764Z,0
2016-09-02T02:42:46.801Z,0
2016-09-02T02:43:46.757Z,0
2016-09-02T02:44:46.736Z,0
2016-09-02T02:45:46.728Z,0
2016-09-02T02:46:46.727Z,0
2016-09-02T02:47:46.737Z,0
2016-09-02T02:48:46.718Z,0
2016-09-02T02:49:46.708Z,0
2016-09-02T02:50:46.707Z,0
2016-09-02T02:51:46.733Z,0
2016-09-02T02:52:46.684Z,0
2016-09-02T02:53:46.677Z,0
2016-09-02T02:54:46.673Z,0
2016-09-02T02:55:46.667Z,0
2016-09-02T02:56:46.665Z,0
2016-09-02T02:57:46.654Z,0
2016-09-02T02:58:47.393Z,0
2016-09-02T02:59:46.652Z,0
2016-09-02T03:00:46.643Z,0
2016-09-02T03:01:46.631Z,0
2016-09-02T03:02:46.619Z,0
2016-09-02T03:03:46.642Z,0
2016-09-02T03:04:46.604Z,0
2016-09-02T03:05:46.622Z,0
2016-09-02T03:06:46.636Z,0
2016-09-02T03:07:46.579Z,0
2016-09-02T03:08:46.585Z,0
2016-09-02T03:09:46.593Z,0
2016-09-02T03:10:46.572Z,0
2016-09-02T03:11:46.582Z,0
2016-09-02T03:12:47.301Z,0
2016-09-02T03:13:47.268Z,0
2016-09-02T03:14:46.574Z,0
2016-09-02T03:15:46.546Z,0
2016-09-02T03:16:46.543Z,0
2016-09-02T03:17:46.517Z,0
2016-09-02T03:18:46.515Z,0
2016-09-02T03:19:46.510Z,0
2016-09-02T03:20:46.518Z,0
2016-09-02T03:21:46.540Z,0
2016-09-02T03:22:46.489Z,0
2016-09-02T03:23:46.510Z,0
2016-09-02T03:24:46.526Z,0
2016-09-02T03:25:46.486Z,0
2016-09-02T03:26:46.472Z,0
2016-09-02T03:27:46.495Z,0
2016-09-02T03:28:46.479Z,0
2016-09-02T03:29:46.431Z,0
2016-09-02T03:30:46.449Z,0
2016-09-02T03:31:46.439Z,0
2016-09-02T03:32:47.134Z,0
2016-09-02T03:33:46.433Z,0
2016-09-02T03:34:46.422Z,0
2016-09-02T03:35:46.418Z,0
2016-09-02T03:36:46.391Z,0
2016-09-02T03:37:46.381Z,0
2016-09-02T03:38:46.597Z,0
2016-09-02T03:39:46.378Z,0
2016-09-02T03:40:46.360Z,0
2016-09-02T03:41:46.365Z,0
2016-09-02T03:42:46.576Z,0
2016-09-02T03:43:46.349Z,0
2016-09-02T03:44:46.341Z,0
2016-09-02T03:45:46.333Z,0
2016-09-02T03:46:46.330Z,0
2016-09-02T03:47:46.324Z,0
2016-09-02T03:48:46.313Z,0
2016-09-02T03:49:46.314Z,0
2016-09-02T03:50:46.329Z,0
2016-09-02T03:51:47.011Z,0
2016-09-02T03:52:46.292Z,0
2016-09-02T03:53:46.274Z,0
2016-09-02T03:54:46.366Z,0
2016-09-02T03:55:46.278Z,0
2016-09-02T03:56:46.270Z,0
2016-09-02T03:57:46.277Z,0
2016-09-02T03:58:46.250Z,0
2016-09-02T03:59:46.954Z,0
2016-09-02T04:00:46.947Z,0
2016-09-02T04:01:46.224Z,0
2016-09-02T04:02:46.228Z,0
2016-09-02T04:03:46.218Z,0
2016-09-02T04:04:46.196Z,0
2016-09-02T04:05:46.188Z,0
2016-09-02T04:06:46.185Z,0
2016-09-02T04:07:46.187Z,0
2016-09-02T04:08:46.183Z,0
2016-09-02T04:09:46.163Z,0
2016-09-02T04:10:46.162Z,0
2016-09-02T04:11:46.219Z,0
2016-09-02T04:12:46.173Z,0
2016-09-02T04:13:46.140Z,0
2016-09-02T04:14:46.131Z,0
2016-09-02T04:15:46.148Z,0
2016-09-02T04:16:46.122Z,0
2016-09-02T04:17:46.111Z,0
2016-09-02T04:18:46.118Z,0
2016-09-02T04:19:46.207Z,0
2016-09-02T04:20:46.086Z,0
2016-09-02T04:21:46.095Z,0
2016-09-02T04:22:46.077Z,0
2016-09-02T04:23:46.784Z,0
2016-09-02T04:24:46.074Z,0
2016-09-02T04:25:46.286Z,0
2016-09-02T04:26:46.066Z,0
2016-09-02T04:27:46.059Z,0
2016-09-02T04:28:46.056Z,0
2016-09-02T04:29:46.065Z,5
2016-09-02T04:30:46.038Z,5
2016-09-02T04:31:46.035Z,5
2016-09-02T04:32:46.023Z,5
2016-09-02T04:33:46.796Z,5
2016-09-02T04:34:46.008Z,5
2016-09-02T04:35:46.013Z,10
2016-09-02T04:36:46.699Z,10
2016-09-02T04:37:46.703Z,10
2016-09-02T04:38:45.992Z,10
2016-09-02T04:39:45.997Z,10
2016-09-02T04:40:45.991Z,15
2016-09-02T04:41:46.692Z,15
2016-09-02T04:42:46.022Z,15
2016-09-02T04:43:45.958Z,15
2016-09-02T04:44:45.977Z,15
2016-09-02T04:45:45.939Z,20
2016-09-02T04:46:46.677Z,20
2016-09-02T04:47:45.929Z,20
2016-09-02T04:48:45.947Z,20
2016-09-02T04:49:45.931Z,25
2016-09-02T04:50:47.360Z,25
2016-09-02T04:51:45.908Z,25
2016-09-02T04:52:45.908Z,25
2016-09-02T04:53:46.618Z,30
2016-09-02T04:54:45.878Z,30
2016-09-02T04:55:45.885Z,30
2016-09-02T04:56:45.880Z,35
2016-09-02T04:57:45.863Z,35
2016-09-02T04:58:45.856Z,40
2016-09-02T04:59:45.848Z,40
2016-09-02T05:00:45.837Z,45
2016-09-02T05:01:45.836Z,45
2016-09-02T05:02:45.850Z,50
2016-09-02T05:03:45.839Z,50
2016-09-02T05:04:45.820Z,55
2016-09-02T05:05:45.809Z,60
2016-09-02T05:06:45.818Z,60
2016-09-02T05:07:45.798Z,65
2016-09-02T05:08:45.788Z,70
2016-09-02T05:09:45.782Z,75
2016-09-02T05:10:45.787Z,75
2016-09-02T05:11:45.794Z,80
2016-09-02T05:12:45.805Z,85
2016-09-02T05:13:45.814Z,85
2016-09-02T05:14:45.819Z,85
2016-09-02T05:15:45.787Z,85
2016-09-02T05:16:45.736Z,90
2016-09-02T05:17:45.737Z,90
2016-09-02T05:18:45.747Z,95
2016-09-02T05:19:45.784Z,100
2016-09-02T05:20:45.775Z,100
2016-09-02T05:21:45.764Z,105
2016-09-02T05:22:45.765Z,110
2016-09-02T05:23:45.777Z,110
2016-09-02T05:24:45.793Z,115
2016-09-02T05:25:45.756Z,120
2016-09-02T05:26:45.761Z,125
2016-09-02T05:27:45.768Z,130
2016-09-02T05:28:45.714Z,130
2016-09-02T05:29:46.419Z,135
2016-09-02T05:30:45.760Z,135
2016-09-02T05:31:45.730Z,135
2016-09-02T05:32:45.754Z,135
2016-09-02T05:33:45.750Z,140
2016-09-02T05:34:45.722Z,140
2016-09-02T05:35:45.707Z,145
2016-09-02T05:36:45.732Z,145
2016-09-02T05:37:46.463Z,140
2016-09-02T05:38:46.444Z,140
2016-09-02T05:39:45.745Z,135
2016-09-02T05:40:45.700Z,135
2016-09-02T05:41:45.710Z,135
2016-09-02T05:42:45.710Z,135
2016-09-02T05:43:46.397Z,140
2016-09-02T05:44:45.675Z,140
2016-09-02T05:45:45.676Z,140
2016-09-02T05:46:46.391Z,135
2016-09-02T05:47:45.700Z,130
2016-09-02T05:48:45.708Z,125
2016-09-02T05:49:45.721Z,120
2016-09-02T05:50:45.722Z,115
2016-09-02T05:51:45.734Z,110
2016-09-02T05:52:45.734Z,110
2016-09-02T05:53:45.721Z,105
2016-09-02T05:54:45.658Z,105
2016-09-02T05:55:45.702Z,105
2016-09-02T05:56:45.682Z,110
2016-09-02T05:57:45.666Z,110
2016-09-02T05:58:45.667Z,110
2016-09-02T05:59:45.680Z,115
2016-09-02T06:00:45.757Z,115
2016-09-02T06:01:46.406Z,115
2016-09-02T06:02:45.668Z,115
2016-09-02T06:03:45.659Z,115
2016-09-02T06:04:45.737Z,115
2016-09-02T06:05:46.081Z,115
2016-09-02T06:06:45.626Z,115
2016-09-02T06:07:45.637Z,115
2016-09-02T06:08:45.644Z,120
2016-09-02T06:09:46.368Z,120
2016-09-02T06:10:46.331Z,125
2016-09-02T06:11:45.615Z,130
2016-09-02T06:12:45.606Z,135
2016-09-02T06:13:46.189Z,140
2016-09-02T06:14:45.604Z,140
2016-09-02T06:15:45.610Z,140
2016-09-02T06:16:45.673Z,140
2016-09-02T06:17:45.641Z,140
2016-09-02T06:18:45.613Z,140
2016-09-02T06:19:45.557Z,140
2016-09-02T06:20:45.646Z,140
2016-09-02T06:21:45.661Z,140
2016-09-02T06:22:45.616Z,140
2016-09-02T06:23:45.641Z,135
2016-09-02T06:24:45.595Z,140
2016-09-02T06:25:45.627Z,140
2016-09-02T06:26:45.624Z,140
2016-09-02T06:27:45.613Z,140
2016-09-02T06:28:46.117Z,145
2016-09-02T06:29:45.654Z,145
2016-09-02T06:30:46.280Z,150
2016-09-02T06:31:45.560Z,155
2016-09-02T06:32:46.279Z,165
2016-09-02T06:33:45.556Z,170
2016-09-02T06:34:45.626Z,175
2016-09-02T06:35:48.120Z,175
2016-09-02T06:36:45.577Z,180
2016-09-02T06:37:45.578Z,185
2016-09-02T06:38:45.586Z,190
2016-09-02T06:39:45.836Z,195
2016-09-02T06:40:45.487Z,195
2016-09-02T06:41:45.473Z,195
2016-09-02T06:42:45.696Z,195
2016-09-02T06:43:45.527Z,195
2016-09-02T06:44:45.544Z,195
2016-09-02T06:45:45.566Z,195
2016-09-02T06:46:45.557Z,195
2016-09-02T06:47:45.553Z,200
2016-09-02T06:48:45.587Z,205
2016-09-02T06:49:45.632Z,210
2016-09-02T06:51:00.166Z,220
2016-09-02T06:51:45.439Z,215
2016-09-02T06:52:45.711Z,195
2016-09-02T06:53:45.571Z,185
2016-09-02T06:54:45.431Z,180
2016-09-02T06:55:45.575Z,175
2016-09-02T06:56:45.547Z,175
2016-09-02T06:57:45.526Z,175
2016-09-02T06:58:46.224Z,175
2016-09-02T06:59:45.564Z,180
2016-09-02T07:00:45.402Z,180
2016-09-02T07:01:45.431Z,180
2016-09-02T07:02:45.427Z,180
2016-09-02T07:03:46.235Z,180
2016-09-02T07:04:45.517Z,175
2016-09-02T07:05:45.529Z,165
2016-09-02T07:06:45.533Z,165
2016-09-02T07:07:45.456Z,165
2016-09-02T07:08:45.546Z,175
2016-09-02T07:09:46.031Z,175
2016-09-02T07:10:45.982Z,180
2016-09-02T07:11:45.365Z,185
2016-09-02T07:12:45.376Z,185
2016-09-02T07:13:45.378Z,185
2016-09-02T07:14:45.420Z,190
2016-09-02T07:15:45.397Z,190
2016-09-02T07:16:45.578Z,190
2016-09-02T07:17:45.488Z,190
2016-09-02T07:18:45.512Z,200
2016-09-02T07:19:45.350Z,205
2016-09-02T07:20:46.109Z,210
2016-09-02T07:21:45.511Z,210
2016-09-02T07:22:45.354Z,210
2016-09-02T07:23:45.348Z,205
2016-09-02T07:24:45.385Z,210
2016-09-02T07:25:46.080Z,220
2016-09-02T07:26:45.394Z,230
2016-09-02T07:27:45.379Z,250
2016-09-02T07:28:45.395Z,255
2016-09-02T07:29:45.353Z,255
2016-09-02T07:30:45.365Z,255
2016-09-02T07:31:45.397Z,265
2016-09-02T07:32:45.392Z,285
2016-09-02T07:33:45.327Z,305
2016-09-02T07:34:46.191Z,320
2016-09-02T07:35:45.385Z,330
2016-09-02T07:36:45.364Z,340
2016-09-02T07:37:45.376Z,350
2016-09-02T07:38:45.375Z,355
2016-09-02T07:39:45.354Z,365
2016-09-02T07:40:45.377Z,365
2016-09-02T07:41:46.401Z,365
2016-09-02T07:42:45.394Z,360
2016-09-02T07:43:45.345Z,360
2016-09-02T07:44:45.397Z,365
2016-09-02T07:45:45.321Z,360
2016-09-02T07:46:45.370Z,345
2016-09-02T07:47:45.343Z,340
2016-09-02T07:48:45.364Z,330
2016-09-02T07:49:45.372Z,330
2016-09-02T07:50:45.846Z,330
2016-09-02T07:51:45.354Z,315
2016-09-02T07:52:45.355Z,310
2016-09-02T07:53:45.349Z,310
2016-09-02T07:54:45.378Z,300
2016-09-02T07:55:45.318Z,275
2016-09-02T07:56:45.350Z,260
2016-09-02T07:57:45.348Z,240
2016-09-02T07:58:45.335Z,230
2016-09-02T07:59:45.325Z,230
2016-09-02T08:00:45.349Z,220
2016-09-02T08:01:45.350Z,210
2016-09-02T08:02:45.350Z,205
2016-09-02T08:03:45.351Z,205
2016-09-02T08:04:45.507Z,210
2016-09-02T08:05:45.438Z,210
2016-09-02T08:06:45.347Z,215
2016-09-02T08:07:45.355Z,220
2016-09-02T08:08:45.354Z,230
2016-09-02T08:10:00.005Z,245
2016-09-02T08:10:45.379Z,255
2016-09-02T08:11:45.338Z,270
2016-09-02T08:12:46.071Z,295
2016-09-02T08:13:45.331Z,335
2016-09-02T08:14:45.351Z,365
2016-09-02T08:15:45.304Z,410
2016-09-02T08:16:45.306Z,435
2016-09-02T08:17:46.065Z,440
2016-09-02T08:18:45.325Z,415
2016-09-02T08:19:45.335Z,385
2016-09-02T08:20:45.345Z,360
2016-09-02T08:21:45.297Z,335
2016-09-02T08:22:45.452Z,320
2016-09-02T08:23:45.306Z,300
2016-09-02T08:24:45.433Z,295
2016-09-02T08:25:45.447Z,280
2016-09-02T08:26:45.857Z,265
2016-09-02T08:27:45.337Z,260
2016-09-02T08:28:46.043Z,255
2016-09-02T08:29:45.322Z,250
2016-09-02T08:30:45.400Z,255
2016-09-02T08:31:45.313Z,260
2016-09-02T08:32:45.339Z,270
2016-09-02T08:33:45.322Z,275
2016-09-02T08:34:45.312Z,285
2016-09-02T08:35:45.466Z,285
2016-09-02T08:36:45.450Z,290
2016-09-02T08:38:00.986Z,300
2016-09-02T08:38:45.447Z,310
2016-09-02T08:39:45.304Z,330
2016-09-02T08:40:45.482Z,335
2016-09-02T08:41:45.317Z,335
2016-09-02T08:42:46.078Z,335
2016-09-02T08:43:45.359Z,330
2016-09-02T08:44:45.316Z,330
2016-09-02T08:45:45.315Z,330
2016-09-02T08:46:45.350Z,325
2016-09-02T08:47:46.145Z,320
2016-09-02T08:48:45.435Z,305
2016-09-02T08:49:45.455Z,295
2016-09-02T08:50:45.478Z,280
2016-09-02T08:51:45.478Z,280
2016-09-02T08:52:45.467Z,285
2016-09-02T08:53:45.475Z,290
2016-09-02T08:54:45.441Z,290
2016-09-02T08:55:45.343Z,275
2016-09-02T08:56:45.322Z,265
2016-09-02T08:57:45.362Z,265
2016-09-02T08:58:45.311Z,270
2016-09-02T08:59:45.459Z,255
2016-09-02T09:00:45.436Z,240
2016-09-02T09:01:45.480Z,235
2016-09-02T09:02:45.441Z,235
2016-09-02T09:03:45.455Z,225
2016-09-02T09:04:45.516Z,220
2016-09-02T09:05:45.495Z,215
2016-09-02T09:06:45.466Z,215
2016-09-02T09:07:45.475Z,230
2016-09-02T09:08:45.465Z,245
2016-09-02T09:09:45.486Z,260
2016-09-02T09:10:45.376Z,265
2016-09-02T09:11:45.343Z,270
2016-09-02T09:12:45.412Z,285
2016-09-02T09:13:45.445Z,310
2016-09-02T09:14:45.455Z,330
2016-09-02T09:15:45.470Z,340
2016-09-02T09:16:45.443Z,345
2016-09-02T09:17:45.451Z,350
2016-09-02T09:18:45.454Z,350
2016-09-02T09:19:46.232Z,345
2016-09-02T09:20:45.472Z,340
2016-09-02T09:21:45.527Z,330
2016-09-02T09:22:45.465Z,310
2016-09-02T09:23:45.344Z,290
2016-09-02T09:24:45.366Z,265
2016-09-02T09:25:45.396Z,235
2016-09-02T09:26:45.389Z,210
2016-09-02T09:27:45.517Z,200
2016-09-02T09:28:45.400Z,195
2016-09-02T09:29:45.409Z,195
2016-09-02T09:30:45.422Z,200
2016-09-02T09:31:45.472Z,200
2016-09-02T09:32:45.422Z,200
2016-09-02T09:33:45.439Z,205
2016-09-02T09:34:45.443Z,200
2016-09-02T09:35:45.472Z,200
2016-09-02T09:36:45.465Z,195
2016-09-02T09:37:45.385Z,190
2016-09-02T09:38:45.370Z,185
2016-09-02T09:39:45.388Z,180
2016-09-02T09:40:45.421Z,185
2016-09-02T09:41:45.414Z,180
2016-09-02T09:42:45.564Z,180
2016-09-02T09:43:45.431Z,175
2016-09-02T09:44:45.416Z,175
2016-09-02T09:45:45.416Z,170
2016-09-02T09:46:45.457Z,175
2016-09-02T09:47:45.454Z,165
2016-09-02T09:48:45.440Z,165
2016-09-02T09:49:45.447Z,160
2016-09-02T09:50:45.374Z,160
2016-09-02T09:51:46.071Z,160
2016-09-02T09:52:45.378Z,155
2016-09-02T09:53:45.398Z,155
2016-09-02T09:54:45.406Z,155
2016-09-02T09:55:46.109Z,155
2016-09-02T09:56:45.424Z,155
2016-09-02T09:57:45.454Z,155
2016-09-02T09:58:45.447Z,155
2016-09-02T09:59:46.172Z,155
2016-09-02T10:00:45.429Z,155
2016-09-02T10:01:45.434Z,160
2016-09-02T10:02:45.363Z,160
2016-09-02T10:03:45.378Z,160
2016-09-02T10:04:45.446Z,160
2016-09-02T10:05:45.369Z,160
2016-09-02T10:06:45.395Z,160
2016-09-02T10:07:45.382Z,165
2016-09-02T10:08:45.426Z,160
2016-09-02T10:09:45.383Z,160
2016-09-02T10:10:45.400Z,160
2016-09-02T10:11:46.140Z,160
2016-09-02T10:12:45.481Z,160
2016-09-02T10:13:45.441Z,160
2016-09-02T10:14:45.419Z,150
2016-09-02T10:15:45.415Z,160
2016-09-02T10:16:45.344Z,160
2016-09-02T10:17:45.503Z,160
2016-09-02T10:18:45.360Z,145
2016-09-02T10:19:45.387Z,150
2016-09-02T10:20:45.360Z,160
2016-09-02T10:21:45.390Z,165
2016-09-02T10:22:45.411Z,185
2016-09-02T10:23:45.391Z,195
2016-09-02T10:24:45.427Z,185
2016-09-02T10:25:45.424Z,165
2016-09-02T10:26:45.406Z,150
2016-09-02T10:27:45.412Z,155
2016-09-02T10:28:45.415Z,160
2016-09-02T10:29:45.417Z,160
2016-09-02T10:30:45.423Z,160
2016-09-02T10:31:45.430Z,165
2016-09-02T10:32:45.364Z,180
2016-09-02T10:33:45.373Z,190
2016-09-02T10:34:45.398Z,190
2016-09-02T10:35:45.410Z,185
2016-09-02T10:36:45.404Z,180
2016-09-02T10:37:45.426Z,175
2016-09-02T10:38:45.420Z,175
2016-09-02T10:39:45.414Z,170
2016-09-02T10:40:46.072Z,175
2016-09-02T10:41:45.530Z,195
2016-09-02T10:42:45.413Z,185
2016-09-02T10:43:46.104Z,170
2016-09-02T10:44:45.402Z,170
2016-09-02T10:45:45.418Z,175
2016-09-02T10:46:45.427Z,175
2016-09-02T10:47:45.391Z,170
2016-09-02T10:48:45.365Z,155
2016-09-02T10:49:45.365Z,135
2016-09-02T10:50:45.600Z,130
2016-09-02T10:51:53.300Z,130
2016-09-02T10:52:45.388Z,140
2016-09-02T10:53:45.388Z,160
2016-09-02T10:54:46.171Z,170
2016-09-02T10:55:46.940Z,195
2016-09-02T10:56:50.380Z,185
2016-09-02T10:57:54.391Z,165
2016-09-02T10:58:45.860Z,170
2016-09-02T10:59:45.475Z,160
2016-09-02T11:00:45.429Z,150
2016-09-02T11:01:45.473Z,165
2016-09-02T11:02:45.440Z,170
2016-09-02T11:03:45.657Z,185
2016-09-02T11:04:45.464Z,175
2016-09-02T11:05:45.391Z,185
2016-09-02T11:06:45.371Z,190
2016-09-02T11:07:45.394Z,190
2016-09-02T11:08:45.384Z,185
2016-09-02T11:09:45.447Z,190
2016-09-02T11:10:45.402Z,170
2016-09-02T11:11:45.412Z,180
2016-09-02T11:12:45.421Z,185
2016-09-02T11:13:45.679Z,175
2016-09-02T11:14:45.410Z,170
2016-09-02T11:15:45.442Z,155
2016-09-02T11:16:45.643Z,150
2016-09-02T11:17:45.359Z,170
2016-09-02T11:18:45.354Z,205
2016-09-02T11:19:45.772Z,185
2016-09-02T11:20:45.370Z,185
2016-09-02T11:21:45.426Z,200
2016-09-02T11:22:45.394Z,190
2016-09-02T11:23:45.560Z,170
2016-09-02T11:24:45.389Z,165
2016-09-02T11:25:45.429Z,170
2016-09-02T11:26:45.420Z,175
2016-09-02T11:27:45.441Z,190
2016-09-02T11:28:45.511Z,215
2016-09-02T11:29:45.429Z,230
2016-09-02T11:30:52.244Z,245
2016-09-02T11:32:19.718Z,225
2016-09-02T11:34:23.475Z,215
2016-09-02T11:35:14.663Z,225
2016-09-02T11:35:35.459Z,230
2016-09-02T11:36:32.267Z,250
2016-09-02T11:37:32.989Z,245
2016-09-02T11:38:32.321Z,235
2016-09-02T11:39:32.285Z,215
2016-09-02T11:40:32.267Z,205
2016-09-02T11:41:32.480Z,200
2016-09-02T11:42:32.273Z,195
2016-09-02T11:43:32.345Z,195
2016-09-02T11:44:32.294Z,205
2016-09-02T11:45:32.307Z,210
2016-09-02T11:46:32.300Z,220
2016-09-02T11:47:33.079Z,225
2016-09-02T11:48:32.311Z,225
2016-09-02T11:49:33.118Z,235
2016-09-02T11:50:33.009Z,225
2016-09-02T11:51:32.285Z,230
2016-09-02T11:52:32.372Z,230
2016-09-02T11:53:33.233Z,250
2016-09-02T11:54:33.236Z,260
2016-09-02T11:55:33.157Z,255
2016-09-02T11:56:32.319Z,270
2016-09-02T11:57:32.308Z,285
2016-09-02T11:58:32.302Z,305
2016-09-02T11:59:32.307Z,310
2016-09-02T12:00:32.476Z,325
2016-09-02T12:01:32.320Z,310
2016-09-02T12:02:32.324Z,310
2016-09-02T12:03:32.303Z,285
2016-09-02T12:04:32.394Z,255
2016-09-02T12:05:32.316Z,230
2016-09-02T12:06:32.311Z,210
2016-09-02T12:07:32.314Z,190
2016-09-02T12:08:32.315Z,185
2016-09-02T12:09:33.219Z,180
2016-09-02T12:10:32.779Z,185
2016-09-02T12:11:33.235Z,180
2016-09-02T12:12:32.340Z,180
2016-09-02T12:13:32.375Z,180
2016-09-02T12:14:32.323Z,190
2016-09-02T12:15:32.334Z,195
2016-09-02T12:16:32.373Z,200
2016-09-02T12:17:32.326Z,210
2016-09-02T12:18:32.367Z,215
2016-09-02T12:19:32.337Z,205
2016-09-02T12:20:32.379Z,205
2016-09-02T12:21:32.352Z,210
2016-09-02T12:22:32.395Z,210
2016-09-02T12:23:32.357Z,215
2016-09-02T12:24:32.400Z,225
2016-09-02T12:25:32.393Z,230
2016-09-02T12:26:32.386Z,235
2016-09-02T12:27:32.355Z,240
2016-09-02T12:28:32.378Z,245
2016-09-02T12:29:32.369Z,250
2016-09-02T12:30:32.365Z,240
2016-09-02T12:31:32.349Z,230
2016-09-02T12:32:32.366Z,220
2016-09-02T12:33:32.376Z,210
2016-09-02T12:34:32.373Z,210
2016-09-02T12:35:32.384Z,210
2016-09-02T12:36:32.386Z,205
2016-09-02T12:37:32.396Z,205
2016-09-02T12:38:33.192Z,205
2016-09-02T12:39:32.376Z,205
2016-09-02T12:40:32.408Z,200
2016-09-02T12:41:32.410Z,200
2016-09-02T12:42:32.407Z,215
2016-09-02T12:43:32.455Z,235
2016-09-02T12:44:32.398Z,230
2016-09-02T12:45:32.391Z,215
2016-09-02T12:46:32.381Z,195
2016-09-02T12:47:32.440Z,190
2016-09-02T12:48:32.395Z,195
2016-09-02T12:49:32.426Z,195
2016-09-02T12:50:32.392Z,225
2016-09-02T12:51:32.389Z,225
2016-09-02T12:52:32.410Z,235
2016-09-02T12:53:33.211Z,245
2016-09-02T12:54:32.630Z,235
2016-09-02T12:55:32.491Z,230
2016-09-02T12:56:32.415Z,230
2016-09-02T12:57:32.421Z,235
2016-09-02T12:58:32.442Z,240
2016-09-02T12:59:32.432Z,225
2016-09-02T13:00:33.660Z,200
2016-09-02T13:01:33.174Z,195
2016-09-02T13:02:32.413Z,200
2016-09-02T13:03:32.453Z,200
2016-09-02T13:04:33.137Z,200
2016-09-02T13:05:32.427Z,190
2016-09-02T13:06:32.434Z,190
2016-09-02T13:07:32.419Z,185
2016-09-02T13:08:32.429Z,195
2016-09-02T13:09:32.438Z,210
2016-09-02T13:10:32.420Z,220
2016-09-02T13:11:32.441Z,230
2016-09-02T13:12:32.434Z,240
2016-09-02T13:13:32.473Z,235
2016-09-02T13:14:32.549Z,225
2016-09-02T13:15:32.469Z,210
2016-09-02T13:16:32.454Z,200
2016-09-02T13:17:32.489Z,200
2016-09-02T13:18:32.466Z,185
2016-09-02T13:19:32.478Z,170
2016-09-02T13:20:32.453Z,165
2016-09-02T13:21:32.462Z,160
2016-09-02T13:22:32.525Z,160
2016-09-02T13:23:33.926Z,160
2016-09-02T13:24:32.462Z,160
2016-09-02T13:25:32.560Z,160
2016-09-02T13:26:32.948Z,155
2016-09-02T13:27:32.845Z,165
2016-09-02T13:28:33.185Z,170
2016-09-02T13:29:32.491Z,160
2016-09-02T13:30:32.485Z,150
2016-09-02T13:31:32.475Z,145
2016-09-02T13:32:32.461Z,140
2016-09-02T13:33:32.481Z,140
2016-09-02T13:34:32.486Z,145
2016-09-02T13:35:37.734Z,145
2016-09-02T13:36:32.492Z,145
2016-09-02T13:37:33.273Z,145
2016-09-02T13:38:32.506Z,145
2016-09-02T13:39:32.541Z,145
2016-09-02T13:40:32.482Z,145
2016-09-02T13:41:32.495Z,145
2016-09-02T13:42:32.492Z,140
2016-09-02T13:43:47.402Z,140
2016-09-02T13:44:32.505Z,140
2016-09-02T13:45:32.563Z,145
2016-09-02T13:46:32.510Z,145
2016-09-02T13:47:32.508Z,140
2016-09-02T13:48:32.525Z,135
2016-09-02T13:49:32.510Z,135
2016-09-02T13:50:33.209Z,130
2016-09-02T13:51:32.526Z,135
2016-09-02T13:52:32.537Z,140
2016-09-02T13:53:32.511Z,140
2016-09-02T13:54:32.523Z,145
2016-09-02T13:55:33.242Z,150
2016-09-02T13:56:32.532Z,150
2016-09-02T13:57:32.548Z,150
2016-09-02T13:58:32.545Z,150
2016-09-02T13:59:32.515Z,150
2016-09-02T14:00:32.834Z,150
2016-09-02T14:01:32.539Z,150
2016-09-02T14:02:32.545Z,145
2016-09-02T14:03:32.538Z,145
2016-09-02T14:04:33.378Z,145
2016-09-02T14:05:32.534Z,145
2016-09-02T14:06:33.378Z,145
2016-09-02T14:07:32.668Z,145
2016-09-02T14:08:32.669Z,145